Time;durP1;ratioP1;P1;durP2;ratioP2;P2;SDS_P1;SDS_P2;PMS_P1;PMS_P2;Temp;Humidity;BMP_temperature;BMP_pressure;BME280_temperature;BME280_humidity;BME280_pressure;Samples;Min_cycle;Max_cycle;Signal;HPM_P1;HPM_P2
2022/12/23 00:00:39;;;;;;;17.77;4.50;;;;;;;;;;5119468;28;20280;-65
2022/12/23 00:03:07;;;;;;;11.13;3.10;;;;;;;;;;5120475;28;20250;-65
2022/12/23 00:05:35;;;;;;;6.83;3.13;;;;;;;;;;5121253;28;20201;-65
2022/12/23 00:08:06;;;;;;;8.13;3.30;;;;;;;;;;5118454;28;20231;-65
2022/12/23 00:10:34;;;;;;;23.73;10.47;;;;;;;;;;5118488;28;20279;-65
2022/12/23 00:15:48;;;;;;;6.43;3.00;;;;;;;;;;5110523;28;20193;-66
2022/12/23 00:18:16;;;;;;;8.60;3.37;;;;;;;;;;5118720;28;20255;-66
2022/12/23 00:20:44;;;;;;;9.37;3.20;;;;;;;;;;5119779;28;20288;-65
2022/12/23 00:23:13;;;;;;;10.33;3.10;;;;;;;;;;5119705;28;20260;-65
2022/12/23 00:25:43;;;;;;;7.00;2.90;;;;;;;;;;5118059;28;20691;-65
2022/12/23 00:28:12;;;;;;;6.60;3.07;;;;;;;;;;5119768;28;20244;-65
2022/12/23 00:30:51;;;;;;;5.97;2.63;;;;;;;;;;5119468;28;20209;-66
2022/12/23 00:33:21;;;;;;;5.90;2.90;;;;;;;;;;5119643;28;20710;-66
2022/12/23 00:35:50;;;;;;;9.70;3.10;;;;;;;;;;5118958;28;20204;-64
2022/12/23 00:42:52;;;;;;;6.70;2.43;;;;;;;;;;5119636;28;20274;-66
2022/12/23 00:43:56;;;;;;;6.73;2.83;;;;;;;;;;5118244;28;20270;-65
2022/12/23 00:46:24;;;;;;;11.03;3.70;;;;;;;;;;5119757;28;20683;-66
2022/12/23 00:51:37;;;;;;;4.43;2.50;;;;;;;;;;5120489;28;20200;-65
2022/12/23 00:54:07;;;;;;;5.40;2.30;;;;;;;;;;5119149;28;20220;-65
2022/12/23 00:56:35;;;;;;;4.83;2.47;;;;;;;;;;5120196;28;20241;-65
2022/12/23 00:59:03;;;;;;;8.33;2.60;;;;;;;;;;5117569;28;20226;-65
2022/12/23 01:07:03;;;;;;;6.53;2.67;;;;;;;;;;5119013;28;20224;-66
2022/12/23 01:09:33;;;;;;;5.87;2.83;;;;;;;;;;5116286;27;20228;-66
2022/12/23 01:12:01;;;;;;;8.67;2.37;;;;;;;;;;5118382;28;20197;-66
2022/12/23 01:14:29;;;;;;;7.40;2.40;;;;;;;;;;5117842;28;20217;-66
2022/12/23 01:16:59;;;;;;;6.17;1.70;;;;;;;;;;5119092;28;20204;-66
2022/12/23 01:19:29;;;;;;;5.07;2.43;;;;;;;;;;5118576;27;20225;-66
2022/12/23 01:21:58;;;;;;;8.93;2.83;;;;;;;;;;5116245;28;20250;-65
2022/12/23 01:24:27;;;;;;;5.80;2.40;;;;;;;;;;5107959;28;20243;-65
2022/12/23 01:26:57;;;;;;;5.73;1.83;;;;;;;;;;5108159;28;20205;-64
2022/12/23 01:29:25;;;;;;;3.90;1.97;;;;;;;;;;5108660;28;20717;-65
2022/12/23 01:31:54;;;;;;;7.30;2.23;;;;;;;;;;5109039;28;20226;-65
2022/12/23 01:34:22;;;;;;;7.87;2.30;;;;;;;;;;5106998;28;20271;-65
2022/12/23 01:36:50;;;;;;;6.00;2.10;;;;;;;;;;5109075;28;20242;-65
2022/12/23 01:39:18;;;;;;;6.40;1.83;;;;;;;;;;5108706;28;20201;-65
2022/12/23 01:44:50;;;;;;;5.17;2.33;;;;;;;;;;5111659;28;20307;-65
2022/12/23 01:47:21;;;;;;;7.50;2.57;;;;;;;;;;5117882;28;20207;-65
2022/12/23 01:49:50;;;;;;;4.17;2.03;;;;;;;;;;5107416;28;20221;-65
2022/12/23 01:52:18;;;;;;;4.37;2.40;;;;;;;;;;5108148;28;20198;-65
2022/12/23 01:54:46;;;;;;;8.53;2.20;;;;;;;;;;5107672;28;20826;-65
2022/12/23 01:57:14;;;;;;;5.43;2.10;;;;;;;;;;5106651;28;20239;-65
2022/12/23 02:05:25;;;;;;;6.40;2.47;;;;;;;;;;5107865;28;20197;-65
2022/12/23 02:11:02;;;;;;;9.27;2.73;;;;;;;;;;5064416;28;20250;-65
2022/12/23 02:13:34;;;;;;;7.50;2.17;;;;;;;;;;5105571;28;20227;-65
2022/12/23 02:16:17;;;;;;;5.37;2.30;;;;;;;;;;5107050;28;20204;-63
2022/12/23 02:18:58;;;;;;;6.50;2.13;;;;;;;;;;5107085;28;20236;-64
2022/12/23 02:21:43;;;;;;;4.53;2.13;;;;;;;;;;5111519;28;20235;-64
2022/12/23 02:24:26;;;;;;;6.17;2.10;;;;;;;;;;5109552;28;20226;-64
2022/12/23 02:27:08;;;;;;;5.83;2.63;;;;;;;;;;5117123;28;20212;-65
2022/12/23 02:29:51;;;;;;;4.67;2.23;;;;;;;;;;5107737;28;20607;-65
2022/12/23 02:32:23;;;;;;;6.67;2.37;;;;;;;;;;5098888;28;20284;-64
2022/12/23 02:34:53;;;;;;;7.50;2.00;;;;;;;;;;5108793;28;20246;-63
2022/12/23 02:37:24;;;;;;;5.20;2.20;;;;;;;;;;5111912;28;20559;-64
2022/12/23 02:39:55;;;;;;;8.63;2.83;;;;;;;;;;5107516;28;20225;-63
2022/12/23 02:42:25;;;;;;;4.70;2.03;;;;;;;;;;5116287;28;20197;-65
2022/12/23 02:44:56;;;;;;;10.17;2.43;;;;;;;;;;5118203;28;20220;-63
2022/12/23 02:47:28;;;;;;;11.53;2.60;;;;;;;;;;5114240;28;20197;-65
2022/12/23 02:49:58;;;;;;;9.23;2.27;;;;;;;;;;5115998;28;20221;-64
2022/12/23 02:52:29;;;;;;;5.73;2.23;;;;;;;;;;5117255;28;20244;-64
2022/12/23 02:54:59;;;;;;;3.47;2.10;;;;;;;;;;5118176;28;20243;-64
2022/12/23 02:57:29;;;;;;;4.40;1.93;;;;;;;;;;5115527;28;20668;-63
2022/12/23 02:59:59;;;;;;;5.80;2.63;;;;;;;;;;5116751;28;20731;-65
2022/12/23 03:02:28;;;;;;;7.60;2.13;;;;;;;;;;5117206;28;20219;-65
2022/12/23 03:04:56;;;;;;;6.97;2.00;;;;;;;;;;5116822;28;20246;-65
2022/12/23 03:07:31;;;;;;;8.00;2.13;;;;;;;;;;5117423;28;20284;-65
2022/12/23 03:10:03;;;;;;;5.33;2.03;;;;;;;;;;5120679;28;20691;-65
2022/12/23 03:12:36;;;;;;;6.43;1.97;;;;;;;;;;5120206;28;20197;-65
2022/12/23 03:15:14;;;;;;;5.77;1.80;;;;;;;;;;5120123;28;20197;-64
2022/12/23 03:17:50;;;;;;;5.00;1.73;;;;;;;;;;5119414;28;20580;-64
2022/12/23 03:20:25;;;;;;;4.60;1.93;;;;;;;;;;5112166;28;20200;-65
2022/12/23 03:22:57;;;;;;;4.77;1.77;;;;;;;;;;5121962;28;20638;-64
2022/12/23 03:25:28;;;;;;;5.23;1.80;;;;;;;;;;5119124;28;20232;-64
2022/12/23 03:27:59;;;;;;;4.70;1.90;;;;;;;;;;5108477;28;20293;-64
2022/12/23 03:30:28;;;;;;;5.27;1.90;;;;;;;;;;5108890;28;20225;-65
2022/12/23 03:32:59;;;;;;;6.90;2.73;;;;;;;;;;5121937;28;20225;-65
2022/12/23 03:35:30;;;;;;;4.93;1.70;;;;;;;;;;5121515;28;20212;-64
2022/12/23 03:37:59;;;;;;;3.70;2.23;;;;;;;;;;5116608;28;20197;-64
2022/12/23 03:40:28;;;;;;;3.57;1.90;;;;;;;;;;5121607;28;20208;-64
2022/12/23 03:42:57;;;;;;;5.57;1.97;;;;;;;;;;5119347;28;20255;-65
2022/12/23 03:45:28;;;;;;;6.80;2.20;;;;;;;;;;5120787;28;20197;-66
2022/12/23 03:48:16;;;;;;;5.90;1.87;;;;;;;;;;5119266;28;20232;-63
2022/12/23 03:50:46;;;;;;;7.20;2.20;;;;;;;;;;5117025;28;20231;-63
2022/12/23 03:53:16;;;;;;;4.30;1.83;;;;;;;;;;5112888;28;20223;-65
2022/12/23 03:55:46;;;;;;;5.87;2.10;;;;;;;;;;5121664;28;20291;-64
2022/12/23 03:58:17;;;;;;;8.70;3.00;;;;;;;;;;5120323;28;20656;-65
2022/12/23 04:00:55;;;;;;;6.30;2.23;;;;;;;;;;5120379;28;20199;-66
2022/12/23 04:03:27;;;;;;;3.93;1.80;;;;;;;;;;5119196;28;20234;-65
2022/12/23 04:05:57;;;;;;;7.27;2.57;;;;;;;;;;5118871;28;20201;-65
2022/12/23 04:08:27;;;;;;;10.87;2.40;;;;;;;;;;5120276;28;20201;-64
2022/12/23 04:10:56;;;;;;;5.43;2.17;;;;;;;;;;5121874;28;20225;-65
2022/12/23 04:13:26;;;;;;;6.27;2.13;;;;;;;;;;5119116;28;20248;-65
2022/12/23 04:15:54;;;;;;;5.40;2.60;;;;;;;;;;5120578;28;20211;-65
2022/12/23 04:18:22;;;;;;;2.83;1.53;;;;;;;;;;5119711;28;20225;-64
2022/12/23 04:20:51;;;;;;;7.10;2.30;;;;;;;;;;5116789;27;20201;-64
2022/12/23 04:23:19;;;;;;;5.07;2.73;;;;;;;;;;5116027;28;21023;-65
2022/12/23 04:25:47;;;;;;;5.03;2.17;;;;;;;;;;5120855;27;20209;-64
2022/12/23 04:28:17;;;;;;;5.63;2.37;;;;;;;;;;5119822;28;20566;-65
2022/12/23 04:30:45;;;;;;;4.50;2.20;;;;;;;;;;5118603;28;20256;-65
2022/12/23 04:33:13;;;;;;;5.13;2.10;;;;;;;;;;5120043;28;20252;-65
2022/12/23 04:35:41;;;;;;;6.53;2.73;;;;;;;;;;5118456;28;20575;-65
2022/12/23 04:38:10;;;;;;;3.77;2.23;;;;;;;;;;5118265;28;20207;-63
2022/12/23 04:40:38;;;;;;;6.00;1.97;;;;;;;;;;5119204;28;20201;-64
2022/12/23 04:43:06;;;;;;;4.47;1.87;;;;;;;;;;5119676;28;20220;-64
2022/12/23 04:45:35;;;;;;;7.77;2.40;;;;;;;;;;5120379;28;20664;-63
2022/12/23 04:48:03;;;;;;;3.47;2.07;;;;;;;;;;5119606;28;20201;-64
2022/12/23 04:50:31;;;;;;;4.57;1.97;;;;;;;;;;5119497;28;20243;-64
2022/12/23 04:52:59;;;;;;;4.37;2.17;;;;;;;;;;5117836;28;20252;-65
2022/12/23 04:55:28;;;;;;;6.63;2.20;;;;;;;;;;5118041;28;20222;-64
2022/12/23 04:57:56;;;;;;;4.57;2.00;;;;;;;;;;5119326;28;20254;-65
2022/12/23 05:00:24;;;;;;;8.90;2.60;;;;;;;;;;5119430;28;20194;-65
2022/12/23 05:02:52;;;;;;;5.67;2.33;;;;;;;;;;5119047;28;20228;-65
2022/12/23 05:05:20;;;;;;;6.93;2.50;;;;;;;;;;5118969;28;20305;-63
2022/12/23 05:07:49;;;;;;;7.00;2.53;;;;;;;;;;5113824;28;20215;-64
2022/12/23 05:10:17;;;;;;;3.80;2.10;;;;;;;;;;5118075;28;20289;-65
2022/12/23 05:12:46;;;;;;;5.10;2.20;;;;;;;;;;5117632;28;20259;-64
2022/12/23 05:15:14;;;;;;;9.00;2.53;;;;;;;;;;5118685;28;20329;-64
2022/12/23 05:17:42;;;;;;;4.80;2.00;;;;;;;;;;5118758;28;20232;-65
2022/12/23 05:20:10;;;;;;;3.50;1.93;;;;;;;;;;5118803;28;20193;-65
2022/12/23 05:22:38;;;;;;;5.23;2.07;;;;;;;;;;5117628;28;20212;-65
2022/12/23 05:25:07;;;;;;;8.13;2.50;;;;;;;;;;5117028;27;20237;-65
2022/12/23 05:27:36;;;;;;;8.23;2.27;;;;;;;;;;5112148;28;20201;-63
2022/12/23 05:30:06;;;;;;;3.50;2.00;;;;;;;;;;5119133;28;20268;-64
2022/12/23 05:32:34;;;;;;;5.73;2.00;;;;;;;;;;5118147;28;20311;-64
2022/12/23 05:35:02;;;;;;;5.80;2.87;;;;;;;;;;5112945;28;20243;-64
2022/12/23 05:37:30;;;;;;;4.90;2.20;;;;;;;;;;5114549;28;20232;-64
2022/12/23 05:39:58;;;;;;;5.93;2.47;;;;;;;;;;5118082;28;20205;-65
2022/12/23 05:42:26;;;;;;;3.47;1.80;;;;;;;;;;5116857;28;20197;-65
2022/12/23 05:44:54;;;;;;;4.73;2.10;;;;;;;;;;5109972;28;20230;-65
2022/12/23 05:47:23;;;;;;;5.97;3.00;;;;;;;;;;5116799;28;20196;-65
2022/12/23 05:49:51;;;;;;;8.43;2.70;;;;;;;;;;5111759;28;20196;-66
2022/12/23 05:52:19;;;;;;;6.27;2.50;;;;;;;;;;5113572;28;20193;-66
2022/12/23 05:54:47;;;;;;;5.70;2.50;;;;;;;;;;5116483;28;20587;-64
2022/12/23 05:57:15;;;;;;;10.17;2.80;;;;;;;;;;5107692;28;20236;-65
2022/12/23 05:59:44;;;;;;;5.27;2.50;;;;;;;;;;5117079;28;20199;-64
2022/12/23 06:02:12;;;;;;;2.97;2.17;;;;;;;;;;5110505;28;20562;-65
2022/12/23 06:04:42;;;;;;;11.87;5.90;;;;;;;;;;5114632;28;20193;-65
2022/12/23 06:07:10;;;;;;;11.30;5.07;;;;;;;;;;5114899;28;20265;-66
2022/12/23 06:09:38;;;;;;;9.30;4.27;;;;;;;;;;5111453;28;20694;-65
2022/12/23 06:12:07;;;;;;;7.07;2.70;;;;;;;;;;5109562;28;20259;-65
2022/12/23 06:14:35;;;;;;;7.40;3.50;;;;;;;;;;5111021;28;20855;-65
2022/12/23 06:17:03;;;;;;;11.97;4.53;;;;;;;;;;5110835;28;20216;-65
2022/12/23 06:19:33;;;;;;;10.73;4.67;;;;;;;;;;5110887;28;20315;-65
2022/12/23 06:22:03;;;;;;;7.80;4.70;;;;;;;;;;5108392;28;20193;-65
2022/12/23 06:24:31;;;;;;;10.70;4.03;;;;;;;;;;5113388;28;20220;-65
2022/12/23 06:26:59;;;;;;;6.33;4.17;;;;;;;;;;5115180;28;20197;-63
2022/12/23 06:29:28;;;;;;;11.17;4.90;;;;;;;;;;5116382;28;20285;-65
2022/12/23 06:31:56;;;;;;;10.00;4.80;;;;;;;;;;5110232;28;20231;-65
2022/12/23 06:34:24;;;;;;;7.50;3.83;;;;;;;;;;5115208;28;20217;-65
2022/12/23 06:36:52;;;;;;;9.10;4.13;;;;;;;;;;5110292;28;20250;-65
2022/12/23 06:39:21;;;;;;;8.87;4.07;;;;;;;;;;5114756;28;20220;-65
2022/12/23 06:41:49;;;;;;;6.47;3.67;;;;;;;;;;5107966;28;20200;-65
2022/12/23 06:44:17;;;;;;;5.27;3.70;;;;;;;;;;5105587;28;20631;-65
2022/12/23 06:46:45;;;;;;;5.13;3.17;;;;;;;;;;5117186;28;20284;-65
2022/12/23 06:49:13;;;;;;;7.90;3.17;;;;;;;;;;5117243;28;20239;-65
2022/12/23 06:51:41;;;;;;;9.97;3.83;;;;;;;;;;5109221;28;20327;-66
2022/12/23 06:54:10;;;;;;;18.80;7.97;;;;;;;;;;5116031;28;20291;-65
2022/12/23 06:56:39;;;;;;;14.17;4.80;;;;;;;;;;5115851;28;20534;-65
2022/12/23 06:59:07;;;;;;;8.40;3.67;;;;;;;;;;5116439;28;20207;-62
2022/12/23 07:01:35;;;;;;;3.90;3.50;;;;;;;;;;5115391;28;20690;-62
2022/12/23 07:04:04;;;;;;;8.93;4.47;;;;;;;;;;5115152;28;20216;-61
2022/12/23 07:06:32;;;;;;;7.63;4.10;;;;;;;;;;5116806;28;20227;-63
2022/12/23 07:09:00;;;;;;;10.93;4.10;;;;;;;;;;5117660;28;20675;-63
2022/12/23 07:11:28;;;;;;;8.03;4.07;;;;;;;;;;5116948;28;20224;-61
2022/12/23 07:13:59;;;;;;;7.23;4.17;;;;;;;;;;5115394;28;20705;-62
2022/12/23 07:16:27;;;;;;;8.93;3.87;;;;;;;;;;5115614;28;20232;-62
2022/12/23 07:18:55;;;;;;;8.23;3.80;;;;;;;;;;5116010;28;20224;-62
2022/12/23 07:21:23;;;;;;;12.50;4.37;;;;;;;;;;5117697;28;20276;-62
2022/12/23 07:23:56;;;;;;;5.27;3.57;;;;;;;;;;5116902;28;20231;-62
2022/12/23 07:26:24;;;;;;;10.10;4.63;;;;;;;;;;5116239;28;20258;-62
2022/12/23 07:28:52;;;;;;;8.60;4.73;;;;;;;;;;5111748;28;20384;-62
2022/12/23 07:31:22;;;;;;;8.97;5.27;;;;;;;;;;5108522;28;20223;-62
2022/12/23 07:33:50;;;;;;;10.13;4.67;;;;;;;;;;5115218;28;20641;-62
2022/12/23 07:36:18;;;;;;;15.40;4.80;;;;;;;;;;5117680;28;20231;-62
2022/12/23 07:38:48;;;;;;;10.67;5.30;;;;;;;;;;5115397;28;20226;-62
2022/12/23 07:41:17;;;;;;;9.13;4.60;;;;;;;;;;5117685;28;20205;-62
2022/12/23 07:43:45;;;;;;;7.37;4.03;;;;;;;;;;5115377;28;20228;-62
2022/12/23 07:46:13;;;;;;;7.13;3.97;;;;;;;;;;5116657;28;20197;-62
2022/12/23 07:48:42;;;;;;;8.20;5.13;;;;;;;;;;5116364;28;20280;-62
2022/12/23 07:51:10;;;;;;;14.83;5.07;;;;;;;;;;5117459;28;20292;-62
2022/12/23 07:53:38;;;;;;;10.60;4.40;;;;;;;;;;5116465;28;20232;-62
2022/12/23 07:56:06;;;;;;;9.70;4.77;;;;;;;;;;5118239;28;20205;-62
2022/12/23 07:58:34;;;;;;;10.17;4.60;;;;;;;;;;5115498;28;20201;-62
2022/12/23 08:01:03;;;;;;;8.93;4.63;;;;;;;;;;5117944;28;20550;-62
2022/12/23 08:03:31;;;;;;;6.60;3.70;;;;;;;;;;5113178;28;20246;-62
2022/12/23 08:06:02;;;;;;;7.10;4.00;;;;;;;;;;5119384;28;20201;-62
2022/12/23 08:08:30;;;;;;;8.50;3.80;;;;;;;;;;5120143;28;20601;-63
2022/12/23 08:10:59;;;;;;;7.20;4.33;;;;;;;;;;5120765;28;20212;-62
2022/12/23 08:13:27;;;;;;;10.60;4.70;;;;;;;;;;5119456;28;20320;-65
2022/12/23 08:15:56;;;;;;;6.03;4.00;;;;;;;;;;5119494;28;20284;-65
2022/12/23 08:18:24;;;;;;;7.47;3.50;;;;;;;;;;5119758;28;20315;-64
2022/12/23 08:20:55;;;;;;;12.60;7.43;;;;;;;;;;5119588;28;20232;-65
2022/12/23 08:23:25;;;;;;;9.60;4.83;;;;;;;;;;5117850;28;20239;-65
2022/12/23 08:26:00;;;;;;;10.77;3.67;;;;;;;;;;5120617;28;20229;-65
2022/12/23 08:28:29;;;;;;;7.53;3.23;;;;;;;;;;5119972;28;20243;-65
2022/12/23 08:31:02;;;;;;;8.10;2.73;;;;;;;;;;5119624;28;20255;-65
2022/12/23 08:33:31;;;;;;;9.83;2.90;;;;;;;;;;5118108;28;20229;-65
2022/12/23 08:35:59;;;;;;;6.50;2.97;;;;;;;;;;5118234;28;20207;-65
2022/12/23 08:38:28;;;;;;;4.83;3.20;;;;;;;;;;5118125;28;20281;-65
2022/12/23 08:40:56;;;;;;;7.93;3.03;;;;;;;;;;5120660;28;20205;-65
2022/12/23 08:43:25;;;;;;;6.10;3.10;;;;;;;;;;5119263;28;20221;-65
2022/12/23 08:46:02;;;;;;;6.00;2.77;;;;;;;;;;5119083;28;20235;-65
2022/12/23 08:48:30;;;;;;;4.63;2.80;;;;;;;;;;5119038;28;20205;-64
2022/12/23 08:51:02;;;;;;;3.50;3.17;;;;;;;;;;5120536;28;20207;-64
2022/12/23 08:53:31;;;;;;;5.27;3.17;;;;;;;;;;5118011;28;20234;-65
2022/12/23 08:56:01;;;;;;;6.20;3.00;;;;;;;;;;5118975;28;20232;-65
2022/12/23 08:58:30;;;;;;;6.13;2.80;;;;;;;;;;5119614;28;20197;-65
2022/12/23 09:00:58;;;;;;;4.77;2.70;;;;;;;;;;5119383;28;20208;-65
2022/12/23 09:03:26;;;;;;;6.77;2.60;;;;;;;;;;5119072;28;20252;-65
2022/12/23 09:05:54;;;;;;;7.03;2.93;;;;;;;;;;5116511;28;20201;-65
2022/12/23 09:08:22;;;;;;;3.73;2.30;;;;;;;;;;5117016;27;20266;-65
2022/12/23 09:10:52;;;;;;;5.47;2.70;;;;;;;;;;5114695;28;20232;-65
2022/12/23 09:13:20;;;;;;;4.90;2.40;;;;;;;;;;5117484;28;20675;-65
2022/12/23 09:16:01;;;;;;;6.03;2.13;;;;;;;;;;5118656;28;20201;-65
2022/12/23 09:18:29;;;;;;;5.23;2.33;;;;;;;;;;5118396;28;20700;-65
2022/12/23 09:20:57;;;;;;;3.03;2.00;;;;;;;;;;5115457;28;20566;-63
2022/12/23 09:23:25;;;;;;;6.10;2.37;;;;;;;;;;5115431;28;20270;-63
2022/12/23 09:25:55;;;;;;;3.30;2.57;;;;;;;;;;5118411;28;20200;-63
2022/12/23 09:28:23;;;;;;;6.60;2.10;;;;;;;;;;5118520;28;20193;-63
2022/12/23 09:30:51;;;;;;;4.13;2.20;;;;;;;;;;5113742;28;20233;-65
2022/12/23 09:33:19;;;;;;;8.33;2.67;;;;;;;;;;5118117;28;20225;-64
2022/12/23 09:35:48;;;;;;;5.30;2.57;;;;;;;;;;5117380;28;20228;-63
2022/12/23 09:38:15;;;;;;;7.30;2.30;;;;;;;;;;5118530;28;20606;-63
2022/12/23 09:40:44;;;;;;;5.67;2.30;;;;;;;;;;5110495;27;20208;-63
2022/12/23 09:43:18;;;;;;;7.10;2.80;;;;;;;;;;5109353;28;20281;-63
2022/12/23 09:45:53;;;;;;;4.77;2.37;;;;;;;;;;5119199;28;20239;-65
2022/12/23 09:48:25;;;;;;;5.23;2.40;;;;;;;;;;5117883;28;20204;-65
2022/12/23 09:50:53;;;;;;;5.93;2.53;;;;;;;;;;5117798;28;20215;-65
2022/12/23 09:53:22;;;;;;;6.10;2.40;;;;;;;;;;5117664;28;20225;-65
2022/12/23 09:55:55;;;;;;;3.87;2.27;;;;;;;;;;5119018;28;20205;-65
2022/12/23 09:58:28;;;;;;;5.83;2.27;;;;;;;;;;5117681;28;20211;-65
2022/12/23 10:01:14;;;;;;;6.70;2.43;;;;;;;;;;5117044;28;20197;-65
2022/12/23 10:03:53;;;;;;;9.60;3.90;;;;;;;;;;5116277;28;20239;-65
2022/12/23 10:06:25;;;;;;;6.50;2.33;;;;;;;;;;5116304;28;20660;-64
2022/12/23 10:08:55;;;;;;;6.50;2.20;;;;;;;;;;5117377;28;20251;-64
2022/12/23 10:11:24;;;;;;;5.13;2.20;;;;;;;;;;5117451;28;20200;-63
2022/12/23 10:13:54;;;;;;;4.03;2.23;;;;;;;;;;5117519;28;20230;-64
2022/12/23 10:16:23;;;;;;;4.97;2.60;;;;;;;;;;5118817;28;20204;-63
2022/12/23 10:18:53;;;;;;;9.57;4.10;;;;;;;;;;5115721;28;20351;-63
2022/12/23 10:21:26;;;;;;;8.50;2.83;;;;;;;;;;5107301;28;20235;-63
2022/12/23 10:23:55;;;;;;;4.83;2.70;;;;;;;;;;5108189;28;20212;-63
2022/12/23 10:26:24;;;;;;;5.03;2.47;;;;;;;;;;5105500;28;20699;-63
2022/12/23 10:29:00;;;;;;;5.10;2.63;;;;;;;;;;5110392;28;20283;-63
2022/12/23 10:31:34;;;;;;;5.67;2.40;;;;;;;;;;5108335;28;20566;-63
2022/12/23 10:34:11;;;;;;;4.10;2.17;;;;;;;;;;5106262;28;20267;-63
2022/12/23 10:36:43;;;;;;;4.70;2.10;;;;;;;;;;5111614;28;20196;-64
2022/12/23 10:39:17;;;;;;;5.17;2.20;;;;;;;;;;5108194;28;20193;-63
2022/12/23 10:41:48;;;;;;;5.10;2.67;;;;;;;;;;5107643;28;20220;-63
2022/12/23 10:44:31;;;;;;;3.33;2.43;;;;;;;;;;5107037;28;20216;-64
2022/12/23 10:47:03;;;;;;;4.97;2.23;;;;;;;;;;5103245;28;20197;-64
2022/12/23 10:49:39;;;;;;;5.77;2.60;;;;;;;;;;5107560;28;20205;-63
2022/12/23 10:52:11;;;;;;;4.27;2.47;;;;;;;;;;5106244;28;20246;-64
2022/12/23 10:54:41;;;;;;;4.97;3.10;;;;;;;;;;5113017;28;20686;-63
2022/12/23 10:57:09;;;;;;;6.70;2.83;;;;;;;;;;5115734;28;20698;-63
2022/12/23 10:59:37;;;;;;;4.50;2.50;;;;;;;;;;5116975;28;20204;-64
2022/12/23 11:02:16;;;;;;;5.83;2.67;;;;;;;;;;5117006;28;20239;-64
2022/12/23 11:04:46;;;;;;;3.70;2.57;;;;;;;;;;5113430;28;20197;-63
2022/12/23 11:07:18;;;;;;;5.60;2.83;;;;;;;;;;5116494;28;20201;-64
2022/12/23 11:10:08;;;;;;;5.37;3.00;;;;;;;;;;5115043;28;20254;-65
2022/12/23 11:12:40;;;;;;;7.87;3.03;;;;;;;;;;5108736;28;20879;-66
2022/12/23 11:15:25;;;;;;;7.53;4.17;;;;;;;;;;5113789;28;20200;-65
2022/12/23 11:18:05;;;;;;;7.23;3.43;;;;;;;;;;5110361;28;20233;-64
2022/12/23 11:20:34;;;;;;;6.07;3.03;;;;;;;;;;5108437;28;20228;-64
2022/12/23 11:23:03;;;;;;;5.50;3.43;;;;;;;;;;5109729;28;20248;-64
2022/12/23 11:25:33;;;;;;;5.60;3.10;;;;;;;;;;5109556;28;20201;-64
2022/12/23 11:28:03;;;;;;;6.70;3.30;;;;;;;;;;5110237;28;20202;-64
2022/12/23 11:30:32;;;;;;;7.60;3.03;;;;;;;;;;5116721;28;20208;-66
2022/12/23 11:33:06;;;;;;;6.93;3.53;;;;;;;;;;5114527;28;20232;-63
2022/12/23 11:35:37;;;;;;;3.97;2.63;;;;;;;;;;5111298;28;20221;-63
2022/12/23 11:38:13;;;;;;;5.83;3.00;;;;;;;;;;5110869;28;20201;-63
2022/12/23 11:40:41;;;;;;;6.93;4.20;;;;;;;;;;5110165;28;20228;-63
2022/12/23 11:43:13;;;;;;;10.77;4.10;;;;;;;;;;5113468;28;20225;-62
2022/12/23 11:45:41;;;;;;;6.90;3.70;;;;;;;;;;5111239;28;20647;-63
2022/12/23 11:48:26;;;;;;;5.90;2.73;;;;;;;;;;5110995;28;20670;-63
2022/12/23 11:50:58;;;;;;;5.23;3.00;;;;;;;;;;5118191;28;20228;-62
2022/12/23 11:53:26;;;;;;;8.73;2.80;;;;;;;;;;5109080;28;20220;-62
2022/12/23 11:55:58;;;;;;;6.73;3.37;;;;;;;;;;5114038;28;20251;-63
2022/12/23 11:58:28;;;;;;;5.93;3.03;;;;;;;;;;5116303;27;20558;-62
2022/12/23 12:00:56;;;;;;;5.47;3.60;;;;;;;;;;5117537;28;20251;-64
2022/12/23 12:03:27;;;;;;;7.40;4.33;;;;;;;;;;5114622;28;20259;-63
2022/12/23 12:05:57;;;;;;;5.87;3.30;;;;;;;;;;5118704;28;20204;-62
2022/12/23 12:08:28;;;;;;;4.83;2.40;;;;;;;;;;5115232;28;20201;-64
2022/12/23 12:11:00;;;;;;;7.70;3.40;;;;;;;;;;5112300;28;20220;-62
2022/12/23 12:13:30;;;;;;;9.33;4.20;;;;;;;;;;5116939;28;20684;-64
2022/12/23 12:16:03;;;;;;;5.13;2.73;;;;;;;;;;5112988;28;20236;-63
2022/12/23 12:18:33;;;;;;;10.40;3.73;;;;;;;;;;5117746;28;20264;-64
2022/12/23 12:21:04;;;;;;;6.27;3.43;;;;;;;;;;5110005;28;20224;-64
2022/12/23 12:23:39;;;;;;;6.60;4.60;;;;;;;;;;5113625;28;20221;-64
2022/12/23 12:26:09;;;;;;;7.33;3.63;;;;;;;;;;5120310;28;20284;-63
2022/12/23 12:28:38;;;;;;;7.07;3.20;;;;;;;;;;5108894;28;20284;-65
2022/12/23 12:31:14;;;;;;;5.40;3.53;;;;;;;;;;5120318;28;20215;-64
2022/12/23 12:33:48;;;;;;;6.87;3.50;;;;;;;;;;5108747;28;20767;-64
2022/12/23 12:36:18;;;;;;;6.90;3.10;;;;;;;;;;5118436;27;20637;-64
2022/12/23 12:38:48;;;;;;;5.97;3.23;;;;;;;;;;5117320;28;20295;-64
2022/12/23 12:41:18;;;;;;;5.50;3.20;;;;;;;;;;5116800;28;20233;-64
2022/12/23 12:43:50;;;;;;;4.50;3.13;;;;;;;;;;5116129;27;20258;-64
2022/12/23 12:46:22;;;;;;;7.23;3.60;;;;;;;;;;5117241;28;20288;-65
2022/12/23 12:48:54;;;;;;;7.80;3.20;;;;;;;;;;5117429;28;20209;-65
2022/12/23 12:51:24;;;;;;;6.90;3.07;;;;;;;;;;5118437;28;20716;-65
2022/12/23 12:53:55;;;;;;;5.63;3.33;;;;;;;;;;5118190;28;20217;-65
2022/12/23 12:56:34;;;;;;;7.03;3.40;;;;;;;;;;5117787;28;20204;-65
2022/12/23 12:59:02;;;;;;;5.43;3.00;;;;;;;;;;5119732;28;20201;-65
2022/12/23 13:01:38;;;;;;;5.27;3.80;;;;;;;;;;5118839;28;20569;-64
2022/12/23 13:04:23;;;;;;;7.97;3.10;;;;;;;;;;5118488;28;20215;-64
2022/12/23 13:06:57;;;;;;;5.80;3.33;;;;;;;;;;5118823;28;20211;-65
2022/12/23 13:09:28;;;;;;;4.87;2.70;;;;;;;;;;5107658;28;20605;-64
2022/12/23 13:12:01;;;;;;;6.10;3.03;;;;;;;;;;5114782;27;20289;-64
2022/12/23 13:14:33;;;;;;;5.30;3.00;;;;;;;;;;5106201;28;20227;-64
2022/12/23 13:17:05;;;;;;;5.03;3.47;;;;;;;;;;5107944;28;20567;-64
2022/12/23 13:19:38;;;;;;;4.73;2.87;;;;;;;;;;5112388;27;20236;-64
2022/12/23 13:22:07;;;;;;;6.73;3.20;;;;;;;;;;5106919;28;20209;-63
2022/12/23 13:24:52;;;;;;;4.97;3.20;;;;;;;;;;5108525;28;20224;-63
2022/12/23 13:27:21;;;;;;;10.57;3.43;;;;;;;;;;5107579;28;20204;-63
2022/12/23 13:29:54;;;;;;;7.50;3.37;;;;;;;;;;5111818;28;20567;-64
2022/12/23 13:32:33;;;;;;;5.10;3.30;;;;;;;;;;5107240;28;20192;-63
2022/12/23 13:35:08;;;;;;;3.80;2.73;;;;;;;;;;5107274;28;20241;-64
2022/12/23 13:37:39;;;;;;;6.60;2.80;;;;;;;;;;5107269;28;20283;-63
2022/12/23 13:40:16;;;;;;;7.63;2.90;;;;;;;;;;5107993;28;20208;-63
2022/12/23 13:42:48;;;;;;;4.53;3.07;;;;;;;;;;5110236;28;20259;-64
2022/12/23 13:45:17;;;;;;;3.80;3.10;;;;;;;;;;5110501;28;20620;-63
2022/12/23 13:47:49;;;;;;;9.13;3.33;;;;;;;;;;5112092;28;20253;-63
2022/12/23 13:50:24;;;;;;;4.73;2.93;;;;;;;;;;5107948;28;20283;-62
2022/12/23 13:53:04;;;;;;;7.97;3.37;;;;;;;;;;5110637;28;20247;-62
2022/12/23 13:55:43;;;;;;;8.37;3.00;;;;;;;;;;5117559;28;20303;-64
2022/12/23 13:58:13;;;;;;;5.00;2.90;;;;;;;;;;5116517;28;20205;-64
2022/12/23 14:00:41;;;;;;;5.90;2.73;;;;;;;;;;5118520;28;20211;-63
2022/12/23 14:03:20;;;;;;;5.03;3.17;;;;;;;;;;5117347;28;20224;-63
2022/12/23 14:05:51;;;;;;;6.10;2.90;;;;;;;;;;5118676;28;20283;-62
2022/12/23 14:08:24;;;;;;;3.30;2.90;;;;;;;;;;5117314;28;20280;-63
2022/12/23 14:10:54;;;;;;;6.40;2.60;;;;;;;;;;5117371;28;20201;-62
2022/12/23 14:13:25;;;;;;;5.83;2.83;;;;;;;;;;5115129;28;20284;-63
2022/12/23 14:16:11;;;;;;;4.87;2.80;;;;;;;;;;5117022;28;20212;-63
2022/12/23 14:18:46;;;;;;;4.83;2.97;;;;;;;;;;5117050;28;20278;-62
2022/12/23 14:21:20;;;;;;;6.13;3.27;;;;;;;;;;5118572;28;20212;-62
2022/12/23 14:23:57;;;;;;;6.43;3.27;;;;;;;;;;5115846;28;20263;-62
2022/12/23 14:27:00;;;;;;;5.63;3.00;;;;;;;;;;5117132;28;20197;-62
2022/12/23 14:29:35;;;;;;;5.87;3.10;;;;;;;;;;5116257;28;20212;-62
2022/12/23 14:32:03;;;;;;;4.23;3.20;;;;;;;;;;5115787;28;20224;-62
2022/12/23 14:34:32;;;;;;;6.83;3.33;;;;;;;;;;5116861;28;20225;-62
2022/12/23 14:37:19;;;;;;;6.00;2.77;;;;;;;;;;5113229;28;20201;-63
2022/12/23 14:39:49;;;;;;;7.20;3.70;;;;;;;;;;5109911;28;20224;-63
2022/12/23 14:42:33;;;;;;;4.20;3.03;;;;;;;;;;5115874;28;20197;-62
2022/12/23 14:45:15;;;;;;;6.47;3.47;;;;;;;;;;5114919;28;20197;-63
2022/12/23 14:47:45;;;;;;;6.57;2.80;;;;;;;;;;5113070;28;20249;-62
2022/12/23 14:50:31;;;;;;;4.27;3.10;;;;;;;;;;5117269;28;20201;-62
2022/12/23 14:53:00;;;;;;;5.40;2.87;;;;;;;;;;5116487;28;20263;-63
2022/12/23 14:55:46;;;;;;;5.60;3.00;;;;;;;;;;5116183;28;20221;-63
2022/12/23 14:58:28;;;;;;;5.63;3.13;;;;;;;;;;5116898;28;20253;-62
2022/12/23 15:01:00;;;;;;;3.93;2.97;;;;;;;;;;5114004;28;20205;-62
2022/12/23 15:03:30;;;;;;;6.13;3.00;;;;;;;;;;5114064;28;20241;-62
2022/12/23 15:05:59;;;;;;;5.63;3.57;;;;;;;;;;5120855;28;20254;-63
2022/12/23 15:08:30;;;;;;;4.40;3.20;;;;;;;;;;5119662;28;20201;-63
2022/12/23 15:11:02;;;;;;;5.00;3.03;;;;;;;;;;5122122;28;20236;-63
2022/12/23 15:13:33;;;;;;;3.97;3.10;;;;;;;;;;5119199;28;20280;-62
2022/12/23 15:16:01;;;;;;;8.27;3.77;;;;;;;;;;5120452;28;20228;-64
2022/12/23 15:18:29;;;;;;;6.97;2.83;;;;;;;;;;5120325;28;20327;-63
2022/12/23 15:20:58;;;;;;;6.27;3.10;;;;;;;;;;5118077;27;20196;-62
2022/12/23 15:23:26;;;;;;;5.93;3.40;;;;;;;;;;5120024;28;20221;-64
2022/12/23 15:25:56;;;;;;;5.93;3.00;;;;;;;;;;5121169;28;20246;-65
2022/12/23 15:28:31;;;;;;;6.47;3.13;;;;;;;;;;5120971;28;20205;-64